Lancaster Airport
KLNS : now visible

Airfield :











YOU CAN JOIN US ON...

 
LOGIN :

Register | Disclaimer

   EN    FR    IT 

 









Legend :    VFR   Marginal VFR   IFR   Intensive IFR   Very Intensive IFR
Visi :
Ceiling :
>= 8 km
>= 3000ft
5 to 8 km
1000 to 3000 ft
1500m to 5 km
500 to 1000 ft
800 to 1500m
200 to 500 ft
< 800m
< 200 ft
Symbols :   Thunderstorms  Fog  Heavy snow  Heavy precipitations  Wind > 20 kt






- Airport Elevation : 403 ft
- IATA code : LNS


KLNS - Lancaster

CURRENT METAR :
  • 081753Z 29016G24KT 10SM FEW045 21/11 A2957 RMK AO2 SLP013 T02110111 10217 20133 58001

EXPIRED METARs :
  • 081653Z 29017G20KT 10SM FEW042 BKN055 19/11 A2958 RMK AO2 SLP014 T01940106
  • 081553Z 30012KT 10SM BKN039 18/11 A2958 RMK AO2 SLP015 T01830106

TAF KLNS
Valid from the 08 at 18:00 until the 09 at 18:00 UTC


081753Z 0818/0918 30014G24KT P6SM BKN050
FM090000 32005KT P6SM SKC
FM091000 15005KT P6SM -SHRA OVC100 WS018/18045KT



MET'MAP, your aeronautical weather chart ! - Copyright ORBIFLY December 2007 - Disclaimer

ORBIFLY MET'MAP TEAM :

Programming & Development : Alexandra Zaïnal
Concept & original design : Baudouin d'Aumeries
Assistance for programming : Marc-Olivier Méhu
Technical & hardware support : Manuel Goepfert

Contact : metmap@orbifly.com




SOURCES & CREDITS :

   NOAA       Earth
Advisory